Philip — WDF2430 — position and weather

sailwx.info

Track history (hours):
 
Tides and Currents Weather Stations Pressure Air Temp Water Temp Dewpoint Dewpoint Depression Visibility Wind Speed Wind Dir Waves Ship Positions

Philip

Owner: Enterprise Marine Services, LLC, San Antonio, TX. More information available from US FCC via Universal Licensing System and Coast Guard Vessel Documentation Center.

Last reported at 2017-Nov-18 01:07 UTC. Time now 2017-Nov-21 21:19 UTC.
Position N 29°32' W 094°54'.

Length 23 m; draft 2.7 m.

Type: Tug. MMSI: 367003780.

Date/timePositionNaut miles runAvg speedWind from/ knotsBaromVisibWave heightAir tempDewpointWater temp
2017-Nov-18 01:07N 29°32' W 094°54'1 4.5
2017-Nov-18 00:58N 29°32' W 094°54'3 5.8
2017-Nov-18 00:30N 29°35' W 094°56'3 6.2
2017-Nov-18 00:00N 29°37' W 094°58'3 6.3
2017-Nov-17 23:30N 29°40' W 094°59'3 5.6
2017-Nov-17 23:00N 29°42' W 095°01'3 5.2
2017-Nov-17 22:30N 29°44' W 095°03'3 4.9
2017-Nov-17 21:55N 29°47' W 095°05'1 0.3
2017-Nov-17 18:16N 29°46' W 095°05'2 5.6
2017-Nov-17 17:56N 29°44' W 095°07'3 1.0
2017-Nov-17 15:14N 29°44' W 095°10'0 0.0
2017-Nov-17 15:00N 29°44' W 095°10'0 0.0
2017-Nov-17 14:30N 29°44' W 095°10'0 0.0
2017-Nov-17 13:58N 29°44' W 095°10'0 0.0
2017-Nov-17 13:30N 29°44' W 095°10'0 0.0
2017-Nov-17 13:00N 29°44' W 095°10'0 0.0
2017-Nov-17 12:29N 29°44' W 095°10'0 0.0
2017-Nov-17 12:00N 29°44' W 095°10'0 0.0
2017-Nov-17 11:30N 29°44' W 095°10'0 0.0
2017-Nov-17 11:00N 29°44' W 095°10'0 0.0
2017-Nov-17 10:27N 29°44' W 095°10'0 0.0
2017-Nov-17 10:00N 29°44' W 095°10'0 0.0
2017-Nov-17 09:22N 29°44' W 095°10'0 0.0
2017-Nov-17 08:53N 29°44' W 095°10'0 0.0
2017-Nov-17 08:30N 29°44' W 095°10'0 0.0
2017-Nov-17 08:00N 29°44' W 095°10'0 0.0
2017-Nov-17 07:29N 29°44' W 095°10'0 0.0
2017-Nov-17 06:53N 29°44' W 095°10'0 0.0
2017-Nov-17 06:30N 29°44' W 095°10'0 0.0
2017-Nov-17 06:00N 29°44' W 095°10'0 0.0
2017-Nov-17 05:30N 29°44' W 095°10'0 0.0
2017-Nov-17 04:59N 29°44' W 095°10'0 0.0
2017-Nov-17 04:28N 29°44' W 095°10'0 0.0
2017-Nov-17 03:59N 29°44' W 095°10'0 0.0
2017-Nov-17 03:30N 29°44' W 095°10'0 0.0
2017-Nov-17 03:00N 29°44' W 095°10'0 0.0
2017-Nov-17 02:29N 29°44' W 095°10'1 1.6
2017-Nov-17 01:54N 29°44' W 095°09'4 0.1
2017-Nov-15 08:43N 29°45' W 095°04'2 5.7
2017-Nov-15 08:22N 29°44' W 095°02'3 5.5
2017-Nov-15 07:53N 29°42' W 094°60'2 6.1
2017-Nov-15 07:29N 29°40' W 094°58'3 6.5
2017-Nov-15 06:59N 29°36' W 094°57'3 6.5
2017-Nov-15 06:30N 29°34' W 094°55'  
2017-Nov-13 01:04N 30°10' W 093°19'0 0.0
2017-Nov-13 00:59N 30°10' W 093°19'0 0.0
2017-Nov-13 00:29N 30°10' W 093°19'0 0.0
2017-Nov-12 23:59N 30°10' W 093°19'0 0.0
2017-Nov-12 23:29N 30°10' W 093°19'0 0.0
2017-Nov-12 22:59N 30°10' W 093°19'0 0.0
2017-Nov-12 22:29N 30°10' W 093°19'0 0.0
2017-Nov-12 21:59N 30°10' W 093°19'0 0.0
2017-Nov-12 21:29N 30°10' W 093°19'0 0.0
2017-Nov-12 20:59N 30°10' W 093°19'0 0.0
2017-Nov-12 20:29N 30°10' W 093°19'0 0.0
2017-Nov-12 19:59N 30°10' W 093°19'0 0.0
2017-Nov-12 19:29N 30°10' W 093°19'0 0.0
2017-Nov-12 18:59N 30°10' W 093°19'0 0.0
2017-Nov-12 17:38N 30°10' W 093°19'0 0.0
2017-Nov-12 16:30N 30°10' W 093°19'  
2017-Nov-10 04:56N 29°32' W 094°54'2 5.5
2017-Nov-10 04:30N 29°34' W 094°55'3 5.8
2017-Nov-10 04:00N 29°36' W 094°57'3 5.9
2017-Nov-10 03:30N 29°39' W 094°58'3 6.0
2017-Nov-10 03:00N 29°42' W 094°60'3 4.9
2017-Nov-10 02:29N 29°44' W 095°02'6 4.3
2017-Nov-10 01:09N 29°44' W 095°08'1 4.6
2017-Nov-10 01:00N 29°44' W 095°09'4 5.0
2017-Nov-10 00:13N 29°44' W 095°13'1 0.1
2017-Nov-09 04:58N 29°43' W 095°15'0 0.1
2017-Nov-09 04:28N 29°43' W 095°15'0 0.8
2017-Nov-09 03:59N 29°43' W 095°15'3 6.3
2017-Nov-09 03:30N 29°45' W 095°12'  
Track history (hours):
 
Tides and Currents Weather Stations Pressure Air Temp Water Temp Dewpoint Dewpoint Depression Visibility Wind Speed Wind Dir Waves Ship Positions

Philip

Owner: Enterprise Marine Services, LLC, San Antonio, TX. More information available from US FCC via Universal Licensing System and Coast Guard Vessel Documentation Center.

Last reported at 2017-Nov-18 01:07 UTC. Time now 2017-Nov-21 21:19 UTC.
Position N 29°32' W 094°54'.

Length 23 m; draft 2.7 m.

Type: Tug. MMSI: 367003780.

Date/timePositionNaut miles runAvg speedWind from/ knotsBaromVisibWave heightAir tempDewpointWater temp
2017-Nov-18 01:07N 29°32' W 094°54'1 4.5
2017-Nov-18 00:58N 29°32' W 094°54'3 5.8
2017-Nov-18 00:30N 29°35' W 094°56'3 6.2
2017-Nov-18 00:00N 29°37' W 094°58'3 6.3
2017-Nov-17 23:30N 29°40' W 094°59'3 5.6
2017-Nov-17 23:00N 29°42' W 095°01'3 5.2
2017-Nov-17 22:30N 29°44' W 095°03'3 4.9
2017-Nov-17 21:55N 29°47' W 095°05'1 0.3
2017-Nov-17 18:16N 29°46' W 095°05'2 5.6
2017-Nov-17 17:56N 29°44' W 095°07'3 1.0
2017-Nov-17 15:14N 29°44' W 095°10'0 0.0
2017-Nov-17 15:00N 29°44' W 095°10'0 0.0
2017-Nov-17 14:30N 29°44' W 095°10'0 0.0
2017-Nov-17 13:58N 29°44' W 095°10'0 0.0
2017-Nov-17 13:30N 29°44' W 095°10'0 0.0
2017-Nov-17 13:00N 29°44' W 095°10'0 0.0
2017-Nov-17 12:29N 29°44' W 095°10'0 0.0
2017-Nov-17 12:00N 29°44' W 095°10'0 0.0
2017-Nov-17 11:30N 29°44' W 095°10'0 0.0
2017-Nov-17 11:00N 29°44' W 095°10'0 0.0
2017-Nov-17 10:27N 29°44' W 095°10'0 0.0
2017-Nov-17 10:00N 29°44' W 095°10'0 0.0
2017-Nov-17 09:22N 29°44' W 095°10'0 0.0
2017-Nov-17 08:53N 29°44' W 095°10'0 0.0
2017-Nov-17 08:30N 29°44' W 095°10'0 0.0
2017-Nov-17 08:00N 29°44' W 095°10'0 0.0
2017-Nov-17 07:29N 29°44' W 095°10'0 0.0
2017-Nov-17 06:53N 29°44' W 095°10'0 0.0
2017-Nov-17 06:30N 29°44' W 095°10'0 0.0
2017-Nov-17 06:00N 29°44' W 095°10'0 0.0
2017-Nov-17 05:30N 29°44' W 095°10'0 0.0
2017-Nov-17 04:59N 29°44' W 095°10'0 0.0
2017-Nov-17 04:28N 29°44' W 095°10'0 0.0
2017-Nov-17 03:59N 29°44' W 095°10'0 0.0
2017-Nov-17 03:30N 29°44' W 095°10'0 0.0
2017-Nov-17 03:00N 29°44' W 095°10'0 0.0
2017-Nov-17 02:29N 29°44' W 095°10'1 1.6
2017-Nov-17 01:54N 29°44' W 095°09'4 0.1
2017-Nov-15 08:43N 29°45' W 095°04'2 5.7
2017-Nov-15 08:22N 29°44' W 095°02'3 5.5
2017-Nov-15 07:53N 29°42' W 094°60'2 6.1
2017-Nov-15 07:29N 29°40' W 094°58'3 6.5
2017-Nov-15 06:59N 29°36' W 094°57'3 6.5
2017-Nov-15 06:30N 29°34' W 094°55'  
2017-Nov-13 01:04N 30°10' W 093°19'0 0.0
2017-Nov-13 00:59N 30°10' W 093°19'0 0.0
2017-Nov-13 00:29N 30°10' W 093°19'0 0.0
2017-Nov-12 23:59N 30°10' W 093°19'0 0.0
2017-Nov-12 23:29N 30°10' W 093°19'0 0.0
2017-Nov-12 22:59N 30°10' W 093°19'0 0.0
2017-Nov-12 22:29N 30°10' W 093°19'0 0.0
2017-Nov-12 21:59N 30°10' W 093°19'0 0.0
2017-Nov-12 21:29N 30°10' W 093°19'0 0.0
2017-Nov-12 20:59N 30°10' W 093°19'0 0.0
2017-Nov-12 20:29N 30°10' W 093°19'0 0.0
2017-Nov-12 19:59N 30°10' W 093°19'0 0.0
2017-Nov-12 19:29N 30°10' W 093°19'0 0.0
2017-Nov-12 18:59N 30°10' W 093°19'0 0.0
2017-Nov-12 17:38N 30°10' W 093°19'0 0.0
2017-Nov-12 16:30N 30°10' W 093°19'  
2017-Nov-10 04:56N 29°32' W 094°54'2 5.5
2017-Nov-10 04:30N 29°34' W 094°55'3 5.8
2017-Nov-10 04:00N 29°36' W 094°57'3 5.9
2017-Nov-10 03:30N 29°39' W 094°58'3 6.0
2017-Nov-10 03:00N 29°42' W 094°60'3 4.9
2017-Nov-10 02:29N 29°44' W 095°02'6 4.3
2017-Nov-10 01:09N 29°44' W 095°08'1 4.6
2017-Nov-10 01:00N 29°44' W 095°09'4 5.0
2017-Nov-10 00:13N 29°44' W 095°13'1 0.1
2017-Nov-09 04:58N 29°43' W 095°15'0 0.1
2017-Nov-09 04:28N 29°43' W 095°15'0 0.8
2017-Nov-09 03:59N 29°43' W 095°15'3 6.3
2017-Nov-09 03:30N 29°45' W 095°12'  

Dump ship's entire track history